John Wayne Airport-Orange County Airport
KSNA : now visible

Airfield :











YOU CAN JOIN US ON...

 
LOGIN :

Register | Disclaimer

   EN    FR    IT 

 









Legend :    VFR   Marginal VFR   IFR   Intensive IFR   Very Intensive IFR
Visi :
Ceiling :
>= 8 km
>= 3000ft
5 to 8 km
1000 to 3000 ft
1500m to 5 km
500 to 1000 ft
800 to 1500m
200 to 500 ft
< 800m
< 200 ft
Symbols :   Thunderstorms  Fog  Heavy snow  Heavy precipitations  Wind > 20 kt






- Airport Elevation : 56 ft
- IATA code : SNA


KSNA - John Wayne -Orange County

CURRENT METAR :
  • 071953Z 00000KT 5SM -RA FEW035 OVC070 16/10 A3003 RMK AO2 SLP170 P0003 T01610100

EXPIRED METARs :
  • 071853Z COR 00000KT 9SM -RA FEW035 OVC070 17/09 A3005 RMK AO2 RAB1757 SLP174 P0002 T01720094
  • 071753Z 00000KT 10SM FEW070 OVC100 17/09 A3005 RMK AO2 RAB01E10B33E45 SLP175 P0000 60001 T01720089 10172 20139 58001

TAF KSNA
Valid from the 07 at 18:00 until the 08 at 18:00 UTC


071720Z 0718/0818 23009KT P6SM -SHRA SCT015 BKN030
TEMPO 0718/0722 2SM RA BKN010
FM080300 20005KT P6SM -SHRA SCT025 BKN045
FM080800 VRB03KT P6SM VCSH SCT015 BKN025
FM081600 VRB05KT P6SM -SHRA SCT015 BKN025



MET'MAP, your aeronautical weather chart ! - Copyright ORBIFLY December 2007 - Disclaimer

ORBIFLY MET'MAP TEAM :

Programming & Development : Alexandra Zaïnal
Concept & original design : Baudouin d'Aumeries
Assistance for programming : Marc-Olivier Méhu
Technical & hardware support : Manuel Goepfert

Contact : metmap@orbifly.com




SOURCES & CREDITS :

   NOAA       Earth
Advisory